ムンバイ の空港の天気 - METARとTAF

チャットラパティー・シヴァージー国際空港 ( VABB / BOM ) - インド ムンバイ
飛行場実況気象(Metar)
観測時間06/25 14:00 IST (06/25 08:30 UTC)
風向・風速南南西 3m/s
視程2200m
天気現象弱い霧雨
少しの雲 雲底高度 370m
全天の4割程度の雲 雲底高度 550m
少しの雲 雲底高度 910m
全天の8割程度の雲 雲底高度 2740m
気温25℃
湿度94%
気圧1000hPa
METARVABB 250830Z 20005KT 2200 -DZ FEW012 SCT018 FEW030CB BKN090 25/24 Q1000 TEMPO 1500 SHRA
過去の天気等 Google飛行場航空写真 Wunderground天気予報

過去48時間のMETAR

飛行場予報(TAF)
データがありません